Hauptseite
METAR-TAF:

METAR-TAF

Flughäfen :

Flugplatz Locarno

Locarno, Schweiz

Breite: 46-09-55N, Länge: 8-52-40E, Höhe: 198 m

Beobachtung

Neuester Wetterbericht von vor 23 Minuten, um 03:20 UTC
Wind 3 kt aus Ost/Nordost
Temperatur 13°C
Luftfeuchtigkeit 100%
Luftdruck 1021 hPa
Sichtweite: 5000 m
Aufgelockert bewölkt in der Höhe von 7500 ft
feuchter Dunst

METAR: LSZL 160320Z AUTO 07003KT 5000NDV BR SCT075 13/13 Q1021 RMK

Zeit: 05:43 (03:43 UTC)

Prognose

Neuester Wetterbericht von vor 1 Stunde und 18 Minuten, um 02:25 UTC
Gültige Prognose vom 16 um 03 UTC bis 16 um 12 UTC
Wind 3 kt aus unterschiedlichen Richtungen
Sichtweite: 7000 m
Durchbrochene Bewölkung in der Höhe von 6000 ft
Übergehend zu
vom 16 um 09 UTC bis 16 um 12 UTC
Sichtweite 10 km oder mehr
Aufgelockert bewölkt in der Höhe von 6000 ft

TAF: LSZL 160225Z 1603/1612 VRB03KT 7000 BKN060 BECMG 1609/1612 9999 SCT060

Wetterbeobachtungen und Prognosen von mehr als 4000 Flughäfen (METAR und TAF Bericht).

Die verfügbaren Stationen werden durch gelbe und rote Markierungen auf der Karte dargestellt.

Führen Sie die Maus auf sie, um den Namen der Station zu sehen.

Darauf klicken, um die Beobachtung von Wetterbeobachtungen und Prognosen zu sehen.

Um die Karte zu ändern : klicken Sie auf den grünen Tasten mit einem schwarzen Kreuz Zum Vergrößern, auf den grünen Button mit einem Gedankenstrich zu verkleinern, oder auf die grünen Pfeile für benachbarte Karten.


METAR-TAF: